Time,TemperatureF,DewpointF,PressureIn,WindDirection,WindDirectionDegrees,WindSpeedMPH,WindSpeedGustMPH,Humidity,HourlyPrecipIn,Conditions,Clouds,dailyrainin,SoftwareType,DateUTC
2013-07-22 00:03:00,68.6,52.0,29.70,East,96,0.0,2.0,56,0.00,,,0.00,weatherlink.com 1.10,2013-07-22 06:03:00,
2013-07-22 00:18:00,67.7,52.0,29.71,ESE,122,0.0,2.0,58,0.00,,,0.00,weatherlink.com 1.10,2013-07-22 06:18:00,
2013-07-22 00:34:00,67.7,52.0,29.71,ESE,120,0.0,1.0,57,0.00,,,0.00,weatherlink.com 1.10,2013-07-22 06:34:00,
2013-07-22 00:49:00,66.8,52.0,29.72,ESE,120,0.0,0.0,59,0.00,,,0.00,weatherlink.com 1.10,2013-07-22 06:49:00,
2013-07-22 01:04:00,65.5,52.0,29.72,ESE,121,0.0,1.0,62,0.00,,,0.00,weatherlink.com 1.10,2013-07-22 07:04:00,
2013-07-22 01:19:00,66.9,53.0,29.72,ESE,108,0.0,2.0,61,0.00,,,0.00,weatherlink.com 1.10,2013-07-22 07:19:00,
2013-07-22 01:34:00,66.3,53.0,29.71,ESE,109,0.0,1.0,62,0.00,,,0.00,weatherlink.com 1.10,2013-07-22 07:34:00,
2013-07-22 01:49:00,65.4,52.0,29.72,ESE,118,0.0,1.0,63,0.00,,,0.00,weatherlink.com 1.10,2013-07-22 07:49:00,
2013-07-22 02:04:00,64.4,53.0,29.71,ESE,103,0.0,2.0,67,0.00,,,0.00,weatherlink.com 1.10,2013-07-22 08:04:00,
2013-07-22 02:19:00,63.0,53.0,29.71,SW,235,0.0,2.0,69,0.00,,,0.00,weatherlink.com 1.10,2013-07-22 08:19:00,
2013-07-22 02:34:00,62.2,52.0,29.71,ESE,105,1.0,2.0,69,0.00,,,0.00,weatherlink.com 1.10,2013-07-22 08:34:00,
2013-07-22 02:49:00,61.6,52.0,29.70,ESE,117,0.0,3.0,72,0.00,,,0.00,weatherlink.com 1.10,2013-07-22 08:49:00,
2013-07-22 03:04:00,62.1,52.0,29.70,NE,49,2.0,3.0,69,0.00,,,0.00,weatherlink.com 1.10,2013-07-22 09:04:00,
2013-07-22 03:19:00,60.3,52.0,29.69,SSE,152,1.0,3.0,74,0.00,,,0.00,weatherlink.com 1.10,2013-07-22 09:19:00,
2013-07-22 03:34:00,61.1,52.0,29.69,ESE,110,2.0,3.0,73,0.00,,,0.00,weatherlink.com 1.10,2013-07-22 09:34:00,
2013-07-22 03:49:00,60.1,52.0,29.69,SSE,161,0.0,2.0,75,0.00,,,0.00,weatherlink.com 1.10,2013-07-22 09:49:00,
2013-07-22 04:04:00,60.5,53.0,29.68,South,181,0.0,3.0,75,0.00,,,0.00,weatherlink.com 1.10,2013-07-22 10:04:00,
2013-07-22 04:19:00,61.1,53.0,29.68,SSE,158,1.0,5.0,75,0.00,,,0.00,weatherlink.com 1.10,2013-07-22 10:19:00,
2013-07-22 04:34:00,60.7,53.0,29.68,ESE,104,2.0,5.0,75,0.00,,,0.00,weatherlink.com 1.10,2013-07-22 10:34:00,
2013-07-22 04:49:00,60.3,53.0,29.68,SW,227,0.0,3.0,77,0.00,,,0.00,weatherlink.com 1.10,2013-07-22 10:49:00,
2013-07-22 05:04:00,60.0,53.0,29.68,SE,137,1.0,4.0,77,0.00,,,0.00,weatherlink.com 1.10,2013-07-22 11:04:00,
2013-07-22 05:19:00,59.5,52.0,29.69,SSW,212,0.0,3.0,77,0.00,,,0.00,weatherlink.com 1.10,2013-07-22 11:19:00,
2013-07-22 05:34:00,59.7,51.0,29.69,SE,140,2.0,2.0,74,0.00,,,0.00,weatherlink.com 1.10,2013-07-22 11:34:00,
2013-07-22 05:49:00,60.1,51.0,29.69,ESE,121,1.0,2.0,72,0.00,,,0.00,weatherlink.com 1.10,2013-07-22 11:49:00,
2013-07-22 06:04:00,58.8,53.0,29.69,East,91,1.0,2.0,80,0.00,,,0.00,weatherlink.com 1.10,2013-07-22 12:04:00,
2013-07-22 06:19:00,59.1,53.0,29.69,East,86,0.0,2.0,79,0.00,,,0.00,weatherlink.com 1.10,2013-07-22 12:19:00,
2013-07-22 06:34:00,59.3,52.0,29.69,SW,230,0.0,2.0,78,0.00,,,0.00,weatherlink.com 1.10,2013-07-22 12:34:00,
2013-07-22 06:49:00,60.5,53.0,29.69,SSW,202,0.0,1.0,77,0.00,,,0.00,weatherlink.com 1.10,2013-07-22 12:49:00,
2013-07-22 07:04:00,63.0,54.0,29.69,SE,134,0.0,1.0,72,0.00,,,0.00,weatherlink.com 1.10,2013-07-22 13:04:00,
2013-07-22 07:19:00,62.6,53.0,29.69,SSW,211,0.0,1.0,72,0.00,,,0.00,weatherlink.com 1.10,2013-07-22 13:19:00,
2013-07-22 07:34:00,64.9,54.0,29.69,East,94,0.0,2.0,69,0.00,,,0.00,weatherlink.com 1.10,2013-07-22 13:34:00,
2013-07-22 07:49:00,65.8,56.0,29.69,ENE,77,2.0,5.0,70,0.00,,,0.00,weatherlink.com 1.10,2013-07-22 13:49:00,
2013-07-22 08:04:00,66.8,54.0,29.69,East,91,3.0,4.0,64,0.00,,,0.00,weatherlink.com 1.10,2013-07-22 14:04:00,
2013-07-22 08:19:00,67.8,55.0,29.69,East,82,2.0,6.0,63,0.00,,,0.00,weatherlink.com 1.10,2013-07-22 14:19:00,
2013-07-22 08:34:00,69.2,56.0,29.68,East,86,3.0,5.0,64,0.00,,,0.00,weatherlink.com 1.10,2013-07-22 14:34:00,
2013-07-22 08:49:00,70.7,56.0,29.68,NNE,32,4.0,5.0,59,0.00,,,0.00,weatherlink.com 1.10,2013-07-22 14:49:00,
2013-07-22 09:04:00,73.0,57.0,29.67,North,10,2.0,2.0,58,0.00,,,0.00,weatherlink.com 1.10,2013-07-22 15:04:00,
2013-07-22 09:19:00,75.5,57.0,29.67,NNW,346,3.0,3.0,52,0.00,,,0.00,weatherlink.com 1.10,2013-07-22 15:19:00,
2013-07-22 09:35:00,77.4,57.0,29.66,NNW,332,3.0,4.0,50,0.00,,,0.00,weatherlink.com 1.10,2013-07-22 15:35:00,
2013-07-22 09:50:00,78.5,56.0,29.66,NNE,15,2.0,6.0,46,0.00,,,0.00,weatherlink.com 1.10,2013-07-22 15:50:00,
2013-07-22 10:05:00,80.1,57.0,29.66,NW,323,2.0,6.0,45,0.00,,,0.00,weatherlink.com 1.10,2013-07-22 16:05:00,
2013-07-22 10:20:00,81.7,56.0,29.66,South,177,6.0,7.0,42,0.00,,,0.00,weatherlink.com 1.10,2013-07-22 16:20:00,
2013-07-22 10:35:00,83.7,55.0,29.65,WSW,255,6.0,6.0,38,0.00,,,0.00,weatherlink.com 1.10,2013-07-22 16:35:00,
2013-07-22 10:50:00,84.1,54.0,29.64,SE,137,8.0,13.0,36,0.00,,,0.00,weatherlink.com 1.10,2013-07-22 16:50:00,
2013-07-22 11:05:00,84.4,55.0,29.64,SSW,213,11.0,12.0,36,0.00,,,0.00,weatherlink.com 1.10,2013-07-22 17:05:00,
2013-07-22 11:20:00,84.9,56.0,29.64,South,190,2.0,11.0,37,0.00,,,0.00,weatherlink.com 1.10,2013-07-22 17:20:00,
2013-07-22 11:35:00,85.5,55.0,29.64,WSW,242,3.0,11.0,35,0.00,,,0.00,weatherlink.com 1.10,2013-07-22 17:35:00,
2013-07-22 11:50:00,86.2,54.0,29.64,SSW,209,3.0,11.0,33,0.00,,,0.00,weatherlink.com 1.10,2013-07-22 17:50:00,
2013-07-22 12:05:00,86.8,51.0,29.63,East,80,1.0,10.0,29,0.00,,,0.00,weatherlink.com 1.10,2013-07-22 18:05:00,
2013-07-22 12:20:00,89.1,55.0,29.63,WNW,301,5.0,7.0,31,0.00,,,0.00,weatherlink.com 1.10,2013-07-22 18:20:00,
2013-07-22 12:35:00,88.2,53.0,29.63,ENE,65,2.0,6.0,30,0.00,,,0.00,weatherlink.com 1.10,2013-07-22 18:35:00,
2013-07-22 12:50:00,88.3,49.0,29.63,WSW,255,4.0,9.0,26,0.00,,,0.00,weatherlink.com 1.10,2013-07-22 18:50:00,
2013-07-22 13:05:00,88.7,46.0,29.62,WSW,254,2.0,9.0,23,0.00,,,0.00,weatherlink.com 1.10,2013-07-22 19:05:00,
2013-07-22 13:20:00,89.0,50.0,29.62,WSW,257,1.0,7.0,26,0.00,,,0.00,weatherlink.com 1.10,2013-07-22 19:20:00,
2013-07-22 13:35:00,89.0,48.0,29.62,SW,219,2.0,8.0,24,0.00,,,0.00,weatherlink.com 1.10,2013-07-22 19:35:00,
2013-07-22 14:05:00,90.4,53.0,29.61,WSW,252,5.0,5.0,28,0.00,,,0.00,weatherlink.com 1.10,2013-07-22 20:05:00,
2013-07-22 14:20:00,90.3,48.0,29.61,West,259,5.0,10.0,23,0.00,,,0.00,weatherlink.com 1.10,2013-07-22 20:20:00,
2013-07-22 14:35:00,90.5,43.0,29.61,WNW,283,5.0,7.0,19,0.00,,,0.00,weatherlink.com 1.10,2013-07-22 20:35:00,
2013-07-22 14:50:00,92.0,41.0,29.60,SSE,147,2.0,5.0,17,0.00,,,0.00,weatherlink.com 1.10,2013-07-22 20:50:00,
2013-07-22 15:05:00,92.8,46.0,29.60,SSW,213,4.0,5.0,20,0.00,,,0.00,weatherlink.com 1.10,2013-07-22 21:05:00,
2013-07-22 15:21:00,92.9,44.0,29.59,WSW,240,2.0,6.0,18,0.00,,,0.00,weatherlink.com 1.10,2013-07-22 21:21:00,
2013-07-22 15:36:00,93.3,44.0,29.59,NNW,345,1.0,4.0,18,0.00,,,0.00,weatherlink.com 1.10,2013-07-22 21:36:00,
2013-07-22 15:51:00,94.0,43.0,29.59,WSW,255,8.0,8.0,17,0.00,,,0.00,weatherlink.com 1.10,2013-07-22 21:51:00,
2013-07-22 16:06:00,93.6,39.0,29.58,NW,309,5.0,8.0,15,0.00,,,0.00,weatherlink.com 1.10,2013-07-22 22:06:00,
2013-07-22 16:21:00,94.1,45.0,29.57,SW,223,3.0,9.0,18,0.00,,,0.00,weatherlink.com 1.10,2013-07-22 22:21:00,
2013-07-22 16:36:00,94.7,48.0,29.57,WNW,283,1.0,8.0,20,0.00,,,0.00,weatherlink.com 1.10,2013-07-22 22:36:00,
2013-07-22 16:51:00,94.5,40.0,29.57,NW,313,8.0,11.0,15,0.00,,,0.00,weatherlink.com 1.10,2013-07-22 22:51:00,
2013-07-22 17:06:00,94.6,40.0,29.56,SW,225,5.0,15.0,15,0.00,,,0.00,weatherlink.com 1.10,2013-07-22 23:06:00,
2013-07-22 17:21:00,95.1,41.0,29.56,WSW,243,1.0,7.0,15,0.00,,,0.00,weatherlink.com 1.10,2013-07-22 23:21:00,
2013-07-22 17:36:00,94.5,38.0,29.55,WNW,294,6.0,17.0,14,0.00,,,0.00,weatherlink.com 1.10,2013-07-22 23:36:00,
2013-07-22 17:51:00,94.7,30.0,29.55,NW,304,5.0,12.0,10,0.00,,,0.00,weatherlink.com 1.10,2013-07-22 23:51:00,
2013-07-22 18:06:00,94.2,36.0,29.56,NNW,335,12.0,12.0,13,0.00,,,0.00,weatherlink.com 1.10,2013-07-23 00:06:00,
2013-07-22 18:21:00,94.0,41.0,29.56,North,9,12.0,22.0,16,0.00,,,0.00,weatherlink.com 1.10,2013-07-23 00:21:00,
2013-07-22 18:36:00,93.3,41.0,29.57,NE,41,8.0,17.0,16,0.00,,,0.00,weatherlink.com 1.10,2013-07-23 00:36:00,
2013-07-22 18:51:00,93.1,42.0,29.57,NNW,338,7.0,19.0,17,0.00,,,0.00,weatherlink.com 1.10,2013-07-23 00:51:00,
2013-07-22 19:06:00,92.3,43.0,29.58,NNE,25,12.0,20.0,18,0.00,,,0.00,weatherlink.com 1.10,2013-07-23 01:06:00,
2013-07-22 19:21:00,91.6,45.0,29.59,NNE,17,10.0,15.0,20,0.00,,,0.00,weatherlink.com 1.10,2013-07-23 01:21:00,
2013-07-22 19:36:00,90.8,47.0,29.60,North,356,11.0,20.0,22,0.00,,,0.00,weatherlink.com 1.10,2013-07-23 01:36:00,
2013-07-22 19:51:00,89.6,48.0,29.61,North,356,10.0,24.0,24,0.00,,,0.00,weatherlink.com 1.10,2013-07-23 01:51:00,
2013-07-22 20:06:00,88.5,49.0,29.61,North,358,15.0,25.0,26,0.00,,,0.00,weatherlink.com 1.10,2013-07-23 02:06:00,
2013-07-22 20:21:00,87.5,49.0,29.62,NNW,345,15.0,18.0,26,0.00,,,0.00,weatherlink.com 1.10,2013-07-23 02:21:00,
2013-07-22 20:36:00,86.3,48.0,29.62,NE,39,10.0,21.0,26,0.00,,,0.00,weatherlink.com 1.10,2013-07-23 02:36:00,
2013-07-22 20:51:00,84.8,47.0,29.63,NE,42,4.0,15.0,27,0.00,,,0.00,weatherlink.com 1.10,2013-07-23 02:51:00,
2013-07-22 21:06:00,83.2,47.0,29.64,NNE,17,2.0,11.0,28,0.00,,,0.00,weatherlink.com 1.10,2013-07-23 03:06:00,
2013-07-22 21:21:00,81.4,46.0,29.65,NE,51,4.0,5.0,29,0.00,,,0.00,weatherlink.com 1.10,2013-07-23 03:21:00,
2013-07-22 21:36:00,79.8,46.0,29.65,NE,44,4.0,8.0,30,0.00,,,0.00,weatherlink.com 1.10,2013-07-23 03:36:00,
2013-07-22 21:51:00,78.2,47.0,29.67,ESE,117,1.0,2.0,33,0.00,,,0.00,weatherlink.com 1.10,2013-07-23 03:51:00,
2013-07-22 22:06:00,77.4,46.0,29.68,ENE,57,3.0,4.0,33,0.00,,,0.00,weatherlink.com 1.10,2013-07-23 04:06:00,
2013-07-22 22:21:00,76.1,49.0,29.69,East,84,3.0,3.0,38,0.00,,,0.00,weatherlink.com 1.10,2013-07-23 04:21:00,
2013-07-22 22:36:00,75.2,50.0,29.70,ESE,121,2.0,5.0,42,0.00,,,0.00,weatherlink.com 1.10,2013-07-23 04:36:00,
2013-07-22 22:51:00,74.4,51.0,29.71,ESE,105,2.0,3.0,44,0.00,,,0.00,weatherlink.com 1.10,2013-07-23 04:51:00,
2013-07-22 23:06:00,72.6,52.0,29.71,ENE,66,0.0,3.0,49,0.00,,,0.00,weatherlink.com 1.10,2013-07-23 05:06:00,
2013-07-22 23:21:00,71.6,51.0,29.72,South,188,1.0,2.0,49,0.00,,,0.00,weatherlink.com 1.10,2013-07-23 05:21:00,
2013-07-22 23:36:00,70.1,53.0,29.73,South,191,0.0,2.0,54,0.00,,,0.00,weatherlink.com 1.10,2013-07-23 05:36:00,
2013-07-22 23:51:00,69.8,54.0,29.74,ESE,113,3.0,3.0,57,0.00,,,0.00,weatherlink.com 1.10,2013-07-23 05:51:00,